Killian, Louisiana
Current Conditions -  °F | °C
As of 10:55 AM on Friday 28 Nov 2014 (Local Time) from KHDC Reporting Station
Clear Clear  
Wind Chill: 54°   Ceiling: Unl
Heat Index: 54°   Visibility: 10mi
Dew Point: 27°   Wind: 5mph
Humidity: 35%   Direction: 160°SSE
Pressure: 30.43"   Gusts: NA
Location:  30.3666°N, 90.584°W
Report Text: KHDC 281655Z AUTO 16004KT 10SM CLR 12/M03 A3043 RMK AO2
Loading
Personal Weather Stations






























Interactive Weather Map New forecast layout! Learn more

10-Day Weather Forecast

Advertisements
Track Severe Weather on mobile